Time;durP1;ratioP1;P1;durP2;ratioP2;P2;SDS_P1;SDS_P2;PMS_P1;PMS_P2;Temp;Humidity;BMP_temperature;BMP_pressure;BME280_temperature;BME280_humidity;BME280_pressure;Samples;Min_cycle;Max_cycle;Signal;HPM_P1;HPM_P2
2022/03/21 11:32:58;;;;;;;15.93;10.02;;;12.90;99.90;;;;;;5113037;27;21063;-80
2022/03/21 11:35:28;;;;;;;19.95;10.27;;;13.10;99.90;;;;;;5111201;28;20179;-80
2022/03/21 11:38:14;;;;;;;22.33;10.27;;;14.00;99.90;;;;;;5109797;28;20639;-80
2022/03/21 11:40:40;;;;;;;20.17;11.75;;;13.20;99.90;;;;;;5109738;28;20542;-80
2022/03/21 11:43:15;;;;;;;11.23;9.63;;;13.40;99.90;;;;;;5109744;28;20171;-80
2022/03/21 11:45:41;;;;;;;11.80;9.30;;;13.50;99.90;;;;;;5110999;28;20162;-80
2022/03/21 11:48:19;;;;;;;12.80;9.57;;;13.50;99.90;;;;;;5111031;28;20663;-80
2022/03/21 11:51:09;;;;;;;14.23;10.30;;;13.50;99.90;;;;;;5110880;28;20191;-80
2022/03/21 11:53:44;;;;;;;15.57;9.50;;;13.60;99.90;;;;;;5092454;28;20167;-80
2022/03/21 11:56:15;;;;;;;12.77;10.02;;;13.70;99.90;;;;;;5110907;28;20201;-80
2022/03/21 11:58:40;;;;;;;17.33;8.00;;;14.30;99.90;;;;;;5110797;28;20246;-80
2022/03/21 12:01:27;;;;;;;15.43;8.55;;;13.90;99.90;;;;;;5109482;28;20687;-80
2022/03/21 12:03:53;;;;;;;14.20;7.43;;;13.90;99.90;;;;;;5109424;28;20171;-80
2022/03/21 12:06:32;;;;;;;10.10;7.55;;;14.00;99.90;;;;;;5110647;28;20175;-80
2022/03/21 12:09:13;;;;;;;13.27;7.95;;;14.20;99.90;;;;;;5110650;28;20207;-80
2022/03/21 12:11:39;;;;;;;12.18;8.00;;;14.20;99.90;;;;;;5109260;28;20202;-80
2022/03/21 12:14:26;;;;;;;9.73;8.57;;;14.30;99.90;;;;;;5109109;28;20171;-80
2022/03/21 12:17:00;;;;;;;8.68;7.13;;;14.30;99.90;;;;;;5110360;28;20186;-80
2022/03/21 12:22:30;;;;;;;12.30;7.30;;;14.50;99.90;;;;;;5110204;28;20194;-80
2022/03/21 12:24:57;;;;;;;7.20;6.43;;;14.60;99.90;;;;;;5109320;28;20247;-80
2022/03/21 12:27:43;;;;;;;8.88;7.03;;;14.60;99.90;;;;;;5110313;28;20163;-80
2022/03/21 12:30:20;;;;;;;8.40;6.97;;;14.70;99.90;;;;;;5110268;28;20224;-80
2022/03/21 12:32:49;;;;;;;10.18;7.43;;;14.70;99.90;;;;;;5109913;28;20229;-80
2022/03/21 12:35:45;;;;;;;7.32;6.50;;;14.80;99.90;;;;;;5108820;28;20182;-80
2022/03/21 12:38:23;;;;;;;13.35;7.68;;;14.80;99.90;;;;;;5110169;28;20620;-81
2022/03/21 12:40:53;;;;;;;11.40;7.88;;;14.90;99.90;;;;;;5110018;28;20691;-80
2022/03/21 12:43:27;;;;;;;10.95;7.85;;;15.00;99.90;;;;;;5101509;28;20208;-80
2022/03/21 12:46:06;;;;;;;6.40;5.78;;;15.10;99.90;;;;;;5096344;28;20194;-80
2022/03/21 12:48:34;;;;;;;10.80;6.07;;;15.20;99.90;;;;;;5096276;28;20560;-80
2022/03/21 12:51:00;;;;;;;8.55;7.00;;;15.30;99.90;;;;;;5096323;28;20199;-81
2022/03/21 12:53:39;;;;;;;12.68;7.90;;;15.50;99.90;;;;;;5096661;28;20175;-80
2022/03/21 12:56:10;;;;;;;7.22;6.53;;;15.50;99.90;;;;;;5094911;28;20175;-81
2022/03/21 12:58:42;;;;;;;9.57;7.05;;;15.60;99.90;;;;;;5096148;28;20621;-81
2022/03/21 13:01:08;;;;;;;12.63;7.50;;;15.70;99.90;;;;;;5094774;28;20175;-81
2022/03/21 13:03:34;;;;;;;6.97;6.28;;;15.80;99.90;;;;;;5094758;28;20175;-81
2022/03/21 13:11:40;;;;;;;8.93;6.25;;;16.10;99.90;;;;;;5096055;28;20219;-80
2022/03/21 13:14:14;;;;;;;8.73;6.43;;;16.20;99.90;;;;;;5094596;28;20254;-80
2022/03/21 13:16:58;;;;;;;6.95;6.45;;;16.40;99.90;;;;;;5095598;28;20547;-80
2022/03/21 13:19:26;;;;;;;8.18;6.90;;;16.50;99.90;;;;;;5094784;28;20171;-81
2022/03/21 13:21:55;;;;;;;7.53;6.07;;;16.50;99.90;;;;;;5095603;28;20254;-81
2022/03/21 13:24:40;;;;;;;6.72;6.10;;;16.50;99.90;;;;;;5095806;28;20164;-80
2022/03/21 13:27:07;;;;;;;10.73;6.90;;;16.60;99.90;;;;;;5095564;28;20167;-80
2022/03/21 13:29:35;;;;;;;9.40;6.85;;;16.70;99.90;;;;;;5094239;28;20176;-81
2022/03/21 13:32:02;;;;;;;7.40;6.65;;;16.80;99.90;;;;;;5095285;28;20223;-81
2022/03/21 13:34:28;;;;;;;7.05;6.45;;;16.90;99.90;;;;;;5094214;28;20167;-81
2022/03/21 13:36:54;;;;;;;8.00;6.82;;;16.90;99.90;;;;;;5095385;28;20163;-80
2022/03/21 13:39:23;;;;;;;10.32;6.88;;;16.90;99.90;;;;;;5095347;28;20193;-80
2022/03/21 13:42:01;;;;;;;7.57;6.88;;;17.00;99.90;;;;;;5095227;28;20640;-81
2022/03/21 13:44:32;;;;;;;7.75;6.72;;;17.10;99.90;;;;;;5094066;28;20254;-81
2022/03/21 13:47:07;;;;;;;7.45;6.65;;;17.30;99.90;;;;;;5095234;28;20163;-81
2022/03/21 13:49:54;;;;;;;8.73;6.90;;;17.40;99.90;;;;;;5095130;28;20198;-81
2022/03/21 13:52:54;;;;;;;11.60;7.15;;;17.60;99.90;;;;;;5093717;28;20199;-81
2022/03/21 13:55:20;;;;;;;7.30;6.70;;;17.60;99.90;;;;;;5081228;28;20175;-81
2022/03/21 13:57:48;;;;;;;11.75;7.35;;;17.70;99.90;;;;;;5093665;28;20176;-81
2022/03/21 14:00:15;;;;;;;10.25;7.25;;;17.70;99.90;;;;;;5094874;28;20209;-81
2022/03/21 14:02:46;;;;;;;10.48;7.10;;;17.80;99.90;;;;;;5094891;28;20635;-81
2022/03/21 14:05:18;;;;;;;8.77;7.22;;;17.80;99.90;;;;;;5093558;28;20175;-81
2022/03/21 14:07:44;;;;;;;7.30;6.28;;;17.80;99.90;;;;;;5094835;28;20259;-81
2022/03/21 14:10:20;;;;;;;14.75;7.00;;;17.90;99.90;;;;;;5094762;28;20176;-81
2022/03/21 14:12:51;;;;;;;7.18;6.47;;;18.00;99.90;;;;;;5094602;28;20186;-81
2022/03/21 14:15:24;;;;;;;8.95;6.80;;;18.00;99.90;;;;;;5094583;28;20212;-81
2022/03/21 14:17:51;;;;;;;8.65;6.43;;;18.10;99.90;;;;;;5094629;28;20178;-81
2022/03/21 14:20:20;;;;;;;8.93;6.63;;;18.10;99.90;;;;;;5094607;28;20159;-81
2022/03/21 14:22:47;;;;;;;7.53;6.80;;;18.20;99.90;;;;;;5094540;28;20231;-81
2022/03/21 14:27:57;;;;;;;8.32;6.10;;;18.30;99.90;;;;;;5094443;28;20704;-81
2022/03/21 14:30:23;;;;;;;11.82;6.57;;;18.50;99.90;;;;;;5093093;28;20175;-80
2022/03/21 14:32:49;;;;;;;7.93;6.18;;;18.40;99.90;;;;;;5094078;28;20310;-81
2022/03/21 14:35:14;;;;;;;7.03;6.38;;;18.50;99.90;;;;;;5094243;28;20167;-81
2022/03/21 14:37:40;;;;;;;7.70;6.60;;;18.50;99.90;;;;;;5094275;28;20174;-81
2022/03/21 14:40:06;;;;;;;7.68;6.15;;;18.50;99.90;;;;;;5094135;28;20171;-81
2022/03/21 14:42:32;;;;;;;7.40;6.38;;;18.60;99.90;;;;;;5094146;28;20171;-81
2022/03/21 14:44:58;;;;;;;8.93;5.15;;;18.60;99.90;;;;;;5094106;28;20167;-81
2022/03/21 14:47:23;;;;;;;6.43;5.75;;;18.60;99.90;;;;;;5094115;28;20174;-80
2022/03/21 14:49:49;;;;;;;8.57;5.32;;;18.60;99.90;;;;;;5094047;28;20190;-80
2022/03/21 14:52:14;;;;;;;6.32;5.22;;;18.50;99.90;;;;;;5093925;28;20202;-81
2022/03/21 14:54:42;;;;;;;7.05;4.95;;;18.50;99.90;;;;;;5093816;28;20175;-81
2022/03/21 14:57:08;;;;;;;6.65;5.97;;;18.60;99.90;;;;;;5093888;28;20190;-80
2022/03/21 14:59:33;;;;;;;9.68;6.13;;;18.70;99.90;;;;;;5093839;28;20198;-81
2022/03/21 15:02:00;;;;;;;6.32;5.80;;;18.80;99.90;;;;;;5093783;28;20170;-81
2022/03/21 15:04:26;;;;;;;8.07;5.65;;;18.80;99.90;;;;;;5093789;28;20163;-81
2022/03/21 15:06:53;;;;;;;6.60;5.72;;;18.80;99.90;;;;;;5093560;28;20171;-81
2022/03/21 15:09:19;;;;;;;6.55;5.63;;;18.80;99.90;;;;;;5092446;28;20177;-81
2022/03/21 15:11:45;;;;;;;5.93;5.32;;;18.80;99.90;;;;;;5093585;28;20220;-81
2022/03/21 15:14:11;;;;;;;9.80;6.00;;;18.90;99.90;;;;;;5093721;28;20667;-81
2022/03/21 15:16:40;;;;;;;8.48;6.32;;;18.90;99.90;;;;;;5093567;28;20538;-81
2022/03/21 15:19:07;;;;;;;9.15;5.72;;;19.10;99.90;;;;;;5093647;28;20156;-80
2022/03/21 15:21:34;;;;;;;9.43;5.78;;;19.10;99.90;;;;;;5093560;28;20559;-80
2022/03/21 15:23:59;;;;;;;8.48;6.00;;;19.00;99.90;;;;;;5093590;28;20178;-81
2022/03/21 15:26:25;;;;;;;6.18;5.57;;;18.90;99.90;;;;;;5093503;28;20533;-81
2022/03/21 15:28:52;;;;;;;6.70;5.65;;;18.80;99.90;;;;;;5093524;28;20185;-81
2022/03/21 15:31:18;;;;;;;8.57;6.13;;;18.80;99.90;;;;;;5093229;28;20309;-81
2022/03/21 15:33:44;;;;;;;6.20;5.50;;;18.80;99.90;;;;;;5093200;28;20293;-80
2022/03/21 15:41:40;;;;;;;6.07;5.07;;;18.90;99.90;;;;;;5093685;28;20202;-81
2022/03/21 15:44:10;;;;;;;8.05;5.20;;;18.90;99.90;;;;;;5093334;28;20167;-80
2022/03/21 15:46:35;;;;;;;6.45;5.78;;;18.90;99.90;;;;;;5093269;28;20171;-81
2022/03/21 15:49:02;;;;;;;6.10;5.53;;;18.80;99.90;;;;;;5093381;28;20241;-81
2022/03/21 15:51:27;;;;;;;6.53;5.82;;;18.80;99.90;;;;;;5093219;28;20199;-81
2022/03/21 15:53:53;;;;;;;6.82;5.57;;;18.80;99.90;;;;;;5093226;28;20554;-81
2022/03/21 15:56:19;;;;;;;10.75;5.63;;;18.70;99.90;;;;;;5093281;28;20166;-81
2022/03/21 15:58:44;;;;;;;10.77;6.32;;;18.70;99.90;;;;;;5091985;28;20171;-81
2022/03/21 16:01:14;;;;;;;8.80;5.00;;;18.60;99.90;;;;;;5093078;28;20624;-81
2022/03/21 16:03:40;;;;;;;6.93;5.65;;;18.60;99.90;;;;;;5093237;28;20172;-81
2022/03/21 16:06:05;;;;;;;6.82;5.47;;;18.60;99.90;;;;;;5093165;28;20212;-81
2022/03/21 16:08:33;;;;;;;5.53;4.97;;;18.50;99.90;;;;;;5093124;28;20181;-81
2022/03/21 16:10:59;;;;;;;6.40;5.30;;;18.50;99.90;;;;;;5092960;28;20256;-81
2022/03/21 16:13:25;;;;;;;7.43;5.57;;;18.50;99.90;;;;;;5092977;28;20171;-81
2022/03/21 16:15:51;;;;;;;9.70;5.60;;;18.50;99.90;;;;;;5091621;28;20215;-81
2022/03/21 16:18:18;;;;;;;6.80;5.25;;;18.40;99.90;;;;;;5094431;28;20195;-81
2022/03/21 16:20:44;;;;;;;7.05;5.18;;;18.30;99.90;;;;;;5096875;28;20164;-80
2022/03/21 16:23:10;;;;;;;6.65;5.85;;;18.30;99.90;;;;;;5096787;28;20167;-81
2022/03/21 16:25:36;;;;;;;5.95;5.45;;;18.10;99.90;;;;;;5095411;28;20167;-81
2022/03/21 16:28:03;;;;;;;9.93;6.03;;;18.00;99.90;;;;;;5096678;28;20171;-81
2022/03/21 16:30:28;;;;;;;5.65;5.15;;;18.00;99.90;;;;;;5096564;28;20182;-81
2022/03/21 16:32:54;;;;;;;9.02;5.85;;;17.90;99.90;;;;;;5095073;28;20257;-80
2022/03/21 16:35:20;;;;;;;6.03;5.43;;;17.90;99.90;;;;;;5096533;28;20675;-81
2022/03/21 16:37:45;;;;;;;9.48;5.63;;;17.80;99.90;;;;;;5096570;28;20160;-80
2022/03/21 16:40:12;;;;;;;7.50;5.00;;;17.70;99.90;;;;;;5096524;28;20524;-81
2022/03/21 16:42:38;;;;;;;6.20;4.85;;;17.60;99.90;;;;;;5095399;28;20171;-80
2022/03/21 16:45:05;;;;;;;10.10;6.22;;;17.50;99.90;;;;;;5095053;28;20182;-80
2022/03/21 16:47:31;;;;;;;8.30;5.32;;;17.40;99.90;;;;;;5096476;28;20250;-80
2022/03/21 16:49:57;;;;;;;7.75;5.32;;;17.30;99.90;;;;;;5096305;28;20313;-81
2022/03/21 16:52:22;;;;;;;7.68;5.53;;;17.20;99.90;;;;;;5094872;28;20205;-80
2022/03/21 16:54:48;;;;;;;6.90;5.13;;;17.10;99.90;;;;;;5096220;28;20195;-80
2022/03/21 16:57:15;;;;;;;11.10;5.70;;;16.90;99.90;;;;;;5096330;28;20170;-80
2022/03/21 16:59:43;;;;;;;12.85;5.55;;;16.90;99.90;;;;;;5096105;28;20173;-80
2022/03/21 17:02:11;;;;;;;5.90;5.40;;;16.80;99.90;;;;;;5094801;28;20178;-80
2022/03/21 17:04:38;;;;;;;6.15;5.15;;;16.70;99.90;;;;;;5095886;28;20504;-80
2022/03/21 17:07:06;;;;;;;8.40;5.43;;;16.50;99.90;;;;;;5095987;28;20166;-80
2022/03/21 17:09:32;;;;;;;14.48;5.80;;;16.40;99.90;;;;;;5095991;28;20220;-80
2022/03/21 17:11:58;;;;;;;7.88;5.32;;;16.20;99.90;;;;;;5095837;28;20730;-80
2022/03/21 17:14:24;;;;;;;9.60;5.00;;;16.10;99.90;;;;;;5095873;28;20248;-81
2022/03/21 17:16:50;;;;;;;8.98;5.25;;;16.00;99.90;;;;;;5094473;28;20218;-81
2022/03/21 17:24:44;;;;;;;8.00;5.57;;;15.50;99.90;;;;;;5095748;28;20210;-81
2022/03/21 17:27:10;;;;;;;7.90;5.80;;;15.40;99.90;;;;;;5095653;28;20163;-80
2022/03/21 17:29:36;;;;;;;7.78;6.10;;;15.20;99.90;;;;;;5095474;28;20182;-80
2022/03/21 17:32:02;;;;;;;8.65;5.80;;;15.30;99.90;;;;;;5095273;28;20223;-80
2022/03/21 17:34:29;;;;;;;6.15;5.57;;;14.90;99.90;;;;;;5095506;28;20209;-80
2022/03/21 17:36:55;;;;;;;6.90;5.78;;;14.80;99.90;;;;;;5095389;28;20624;-80
2022/03/21 17:39:20;;;;;;;6.70;6.20;;;14.80;99.90;;;;;;5095359;28;20175;-80
2022/03/21 17:41:46;;;;;;;6.32;5.22;;;14.50;99.90;;;;;;5095440;28;20168;-80
2022/03/21 17:44:12;;;;;;;9.27;6.40;;;14.30;99.90;;;;;;5095279;28;20172;-80
2022/03/21 17:46:39;;;;;;;6.15;5.63;;;14.10;99.90;;;;;;5095230;28;20528;-80
2022/03/21 17:49:05;;;;;;;7.85;5.28;;;14.00;99.90;;;;;;5095190;28;20261;-80
2022/03/21 17:51:31;;;;;;;7.80;5.88;;;14.00;99.90;;;;;;5095052;28;20655;-80
2022/03/21 17:53:57;;;;;;;20.25;6.65;;;13.80;99.90;;;;;;5095058;28;20438;-80
2022/03/21 17:56:22;;;;;;;7.07;6.18;;;13.60;99.90;;;;;;5095027;28;20646;-80
